Aultbea, United Kingdom
Current Conditions -  °F | °C
As of 6:20 PM on Saturday 22 Nov 2014 (Local Time) from EGPO Reporting Station
Few Clouds Few Clouds  
Wind Chill: 37°   Ceiling: Unl
Heat Index: 43°   Visibility: 6mi
Dew Point: 39°   Wind: 10mph
Humidity: 87%   Direction: 230°SW
Pressure: 29.77"   Gusts: NA
Location:  57.87°N, 5.63°W
Report Text: EGPO 221820Z AUTO 23009KT 9999 FEW032/// 06/04 Q1008
Loading
Personal Weather Stations






























Interactive Weather Map New forecast layout! Learn more

10-Day Weather Forecast

Advertisements
Track Severe Weather on mobile